Los Angeles, California
Current Conditions -  °F | °C
As of 8:47 PM on Sunday 19 Oct 2014 (Local Time) from KCQT Reporting Station
Overcast Overcast  
Wind Chill: 68°   Ceiling: 1100
Heat Index: 68°   Visibility: 10mi
Dew Point: 62°   Wind: 0mph
Humidity: 81%   Direction: NA
Pressure: 29.86"   Gusts: NA
Location:  34.05°N, 118.24°W
Report Text: KCQT 200347Z AUTO 00000KT 10SM OVC011 20/17 A2986 RMK AO2 SLP111 T02000167
Loading
Personal Weather Stations






























Interactive Weather Map New forecast layout! Learn more

10-Day Weather Forecast

Advertisements
Track Severe Weather on mobile